createdAt,value
2022-10-17T00:01:43.913Z,1.10
2022-10-17T00:04:16.786Z,1.40
2022-10-17T00:06:51.267Z,1.10
2022-10-17T00:09:24.178Z,1.35
2022-10-17T00:11:57.171Z,1.20
2022-10-17T00:14:33.098Z,1.00
2022-10-17T00:17:06.375Z,1.13
2022-10-17T00:19:39.282Z,1.10
2022-10-17T00:22:13.788Z,1.10
2022-10-17T00:24:46.567Z,1.05
2022-10-17T00:27:19.814Z,1.10
2022-10-17T00:29:53.345Z,1.17
2022-10-17T00:32:26.349Z,1.45
2022-10-17T00:34:59.761Z,1.10
2022-10-17T00:37:37.041Z,0.80
2022-10-17T00:40:11.383Z,1.20
2022-10-17T00:42:44.371Z,1.40
2022-10-17T00:45:23.409Z,1.00
2022-10-17T00:48:01.308Z,1.10
2022-10-17T00:50:36.584Z,1.10
2022-10-17T00:53:11.951Z,1.40
2022-10-17T00:55:50.782Z,1.10
2022-10-17T00:58:23.982Z,1.00
2022-10-17T01:00:56.764Z,1.05
2022-10-17T01:03:29.751Z,1.00
2022-10-17T01:06:02.778Z,1.17
2022-10-17T01:08:37.420Z,0.90
2022-10-17T01:11:21.822Z,1.10
2022-10-17T01:13:59.924Z,1.00
2022-10-17T01:16:40.691Z,1.02
2022-10-17T01:19:37.462Z,1.40
2022-10-17T01:22:16.521Z,1.10
2022-10-17T01:25:19.697Z,1.05
2022-10-17T01:28:06.958Z,1.02
2022-10-17T01:31:00.743Z,1.00
2022-10-17T01:33:45.228Z,1.10
2022-10-17T01:36:28.955Z,1.00
2022-10-17T01:39:09.082Z,0.98
2022-10-17T01:41:45.252Z,0.80
2022-10-17T01:44:23.084Z,0.98
2022-10-17T01:47:04.338Z,1.00
2022-10-17T01:49:41.776Z,1.00
2022-10-17T01:52:20.082Z,0.93
2022-10-17T01:54:56.914Z,1.13
2022-10-17T01:57:34.453Z,1.10
2022-10-17T02:00:12.555Z,1.20
2022-10-17T02:02:49.847Z,1.17
2022-10-17T02:05:28.935Z,1.00
2022-10-17T02:08:01.892Z,0.98
2022-10-17T02:10:41.399Z,1.15
2022-10-17T02:13:22.186Z,1.30
2022-10-17T02:16:14.102Z,1.30
2022-10-17T02:19:08.756Z,1.27
2022-10-17T02:21:50.372Z,1.08
2022-10-17T02:24:38.023Z,1.27
2022-10-17T02:27:15.207Z,1.27
2022-10-17T02:29:50.139Z,1.02
2022-10-17T02:32:29.836Z,0.95
2022-10-17T02:35:08.724Z,1.27
2022-10-17T02:37:43.296Z,1.20
2022-10-17T02:40:19.953Z,1.45
2022-10-17T02:42:55.580Z,1.20
2022-10-17T02:45:35.807Z,1.20
2022-10-17T02:48:14.140Z,0.90
2022-10-17T02:51:03.219Z,1.15
2022-10-17T02:53:41.534Z,1.48
2022-10-17T02:56:19.203Z,1.15
2022-10-17T02:58:55.600Z,1.30
2022-10-17T03:01:29.990Z,1.52
2022-10-17T03:04:07.831Z,1.20
2022-10-17T03:06:42.793Z,1.05
2022-10-17T03:09:16.357Z,1.15
2022-10-17T03:11:49.259Z,1.40
2022-10-17T03:14:22.113Z,1.20
2022-10-17T03:16:55.009Z,1.20
2022-10-17T03:19:27.824Z,1.27
2022-10-17T03:22:02.170Z,1.20
2022-10-17T03:24:35.015Z,1.65
2022-10-17T03:27:07.932Z,1.10
2022-10-17T03:29:40.729Z,1.20
2022-10-17T03:32:13.515Z,1.40
2022-10-17T03:34:46.341Z,1.23
2022-10-17T03:37:20.658Z,1.73
2022-10-17T03:39:53.477Z,1.48
2022-10-17T03:42:26.430Z,1.23
2022-10-17T03:44:59.379Z,1.52
2022-10-17T03:47:32.665Z,1.08
2022-10-17T03:50:06.272Z,1.23
2022-10-17T03:52:40.549Z,1.50
2022-10-17T03:55:13.338Z,1.63
2022-10-17T03:57:46.310Z,1.33
2022-10-17T04:00:19.151Z,1.40
2022-10-17T04:02:52.128Z,1.50
2022-10-17T04:05:25.474Z,1.30
2022-10-17T04:08:02.384Z,1.35
2022-10-17T04:10:37.669Z,1.77
2022-10-17T04:13:10.494Z,1.45
2022-10-17T04:15:43.299Z,1.60
2022-10-17T04:18:16.244Z,1.55
2022-10-17T04:20:49.081Z,1.40
2022-10-17T04:23:23.949Z,1.25
2022-10-17T04:25:57.299Z,1.85
2022-10-17T04:28:30.350Z,1.20
2022-10-17T04:31:05.793Z,1.30
2022-10-17T04:33:38.654Z,1.30
2022-10-17T04:36:13.356Z,1.55
2022-10-17T04:38:48.148Z,1.60
2022-10-17T04:41:20.917Z,1.30
2022-10-17T04:43:53.770Z,1.23
2022-10-17T04:46:26.718Z,1.35
2022-10-17T04:48:59.607Z,1.58
2022-10-17T04:51:32.443Z,1.27
2022-10-17T04:54:07.374Z,1.33
2022-10-17T04:56:40.113Z,1.70
2022-10-17T04:59:12.882Z,1.45
2022-10-17T05:01:45.610Z,1.58
2022-10-17T05:04:22.378Z,1.42
2022-10-17T05:06:57.587Z,1.70
2022-10-17T05:09:32.065Z,1.50
2022-10-17T05:12:06.761Z,1.45
2022-10-17T05:14:45.051Z,1.33
2022-10-17T05:17:18.145Z,1.60
2022-10-17T05:19:51.458Z,1.50
2022-10-17T05:22:24.284Z,1.38
2022-10-17T05:24:59.049Z,1.52
2022-10-17T05:27:32.197Z,1.60
2022-10-17T05:30:06.149Z,1.65
2022-10-17T05:32:39.031Z,1.35
2022-10-17T05:35:11.894Z,1.48
2022-10-17T05:37:45.017Z,1.48
2022-10-17T05:40:19.452Z,1.27
2022-10-17T05:42:53.202Z,1.83
2022-10-17T05:45:26.142Z,1.45
2022-10-17T05:47:59.108Z,1.73
2022-10-17T05:50:32.181Z,1.73
2022-10-17T05:53:05.025Z,1.30
2022-10-17T05:55:39.733Z,1.77
2022-10-17T05:58:21.742Z,1.95
2022-10-17T06:00:59.805Z,1.38
2022-10-17T06:03:33.000Z,1.60
2022-10-17T06:06:06.980Z,2.00
2022-10-17T06:08:39.874Z,1.90
2022-10-17T06:11:14.574Z,2.03
2022-10-17T06:13:47.348Z,1.80
2022-10-17T06:16:20.186Z,2.05
2022-10-17T06:18:53.365Z,1.73
2022-10-17T06:21:27.924Z,2.20
2022-10-17T06:24:00.874Z,1.85
2022-10-17T06:26:35.105Z,1.70
2022-10-17T06:29:08.689Z,1.65
2022-10-17T06:31:41.556Z,1.70
2022-10-17T06:34:14.349Z,1.92
2022-10-17T06:36:47.599Z,1.75
2022-10-17T06:39:20.953Z,1.80
2022-10-17T06:41:55.211Z,1.40
2022-10-17T06:44:31.623Z,1.70
2022-10-17T06:47:04.720Z,1.63
2022-10-17T06:49:37.561Z,1.88
2022-10-17T06:52:11.766Z,1.58
2022-10-17T06:54:44.945Z,2.22
2022-10-17T06:57:20.004Z,1.92
2022-10-17T06:59:53.506Z,1.60
2022-10-17T07:02:26.579Z,1.70
2022-10-17T07:04:59.562Z,1.70
2022-10-17T07:07:33.263Z,1.73
2022-10-17T07:10:08.577Z,1.90
2022-10-17T07:12:44.925Z,1.55
2022-10-17T07:15:18.011Z,1.77
2022-10-17T07:17:51.510Z,1.80
2022-10-17T07:20:24.317Z,1.73
2022-10-17T07:22:57.261Z,1.52
2022-10-17T07:25:30.102Z,1.80
2022-10-17T07:28:04.847Z,2.00
2022-10-17T07:30:37.704Z,1.80
2022-10-17T07:33:10.507Z,1.85
2022-10-17T07:35:43.417Z,1.80
2022-10-17T07:38:16.229Z,2.28
2022-10-17T07:40:55.502Z,2.05
2022-10-17T07:43:30.702Z,2.00
2022-10-17T07:46:04.552Z,1.70
2022-10-17T07:48:37.897Z,1.52
2022-10-17T07:51:11.689Z,1.63
2022-10-17T07:53:47.968Z,1.40
2022-10-17T07:56:24.715Z,1.50
2022-10-17T07:59:00.773Z,1.77
2022-10-17T08:01:37.160Z,1.75
2022-10-17T08:04:11.920Z,1.90
2022-10-17T08:06:45.040Z,1.52
2022-10-17T08:09:18.443Z,1.40
2022-10-17T08:11:51.219Z,1.50
2022-10-17T08:14:25.775Z,1.42
2022-10-17T08:16:59.051Z,1.52
2022-10-17T08:19:31.939Z,1.40
2022-10-17T08:22:04.790Z,1.60
2022-10-17T08:24:38.006Z,1.73
2022-10-17T08:27:13.696Z,2.60
2022-10-17T08:29:48.879Z,1.70
2022-10-17T08:32:24.936Z,1.50
2022-10-17T08:34:58.075Z,1.52
2022-10-17T08:37:31.812Z,1.65
2022-10-17T08:40:05.792Z,1.60
2022-10-17T08:42:53.485Z,1.60
2022-10-17T08:45:33.309Z,1.80
2022-10-17T08:48:11.295Z,1.40
2022-10-17T08:50:47.628Z,1.83
2022-10-17T08:53:24.277Z,2.08
2022-10-17T08:55:57.749Z,1.88
2022-10-17T08:58:34.476Z,1.60
2022-10-17T09:01:20.561Z,1.80
2022-10-17T09:04:06.747Z,2.17
2022-10-17T09:06:44.008Z,1.63
2022-10-17T09:09:32.958Z,1.67
2022-10-17T09:12:16.289Z,1.80
2022-10-17T09:15:18.902Z,1.42
2022-10-17T09:17:57.901Z,1.50
2022-10-17T09:20:34.694Z,1.73
2022-10-17T09:23:14.532Z,1.60
2022-10-17T09:25:49.963Z,1.70
2022-10-17T09:28:28.626Z,1.70
2022-10-17T09:31:04.421Z,1.45
2022-10-17T09:33:56.638Z,1.80
2022-10-17T09:36:32.105Z,1.70
2022-10-17T09:39:07.606Z,1.55
2022-10-17T09:41:46.868Z,1.50
2022-10-17T09:44:22.932Z,1.38
2022-10-17T09:47:23.552Z,1.50
2022-10-17T09:49:58.143Z,1.38
2022-10-17T09:52:35.935Z,1.73
2022-10-17T09:55:19.152Z,1.40
2022-10-17T09:57:54.963Z,1.63
2022-10-17T10:00:30.227Z,1.67
2022-10-17T10:03:19.783Z,1.73
2022-10-17T10:06:05.616Z,1.48
2022-10-17T10:08:50.768Z,1.73
2022-10-17T10:11:25.783Z,1.45
2022-10-17T10:14:13.311Z,1.70
2022-10-17T10:16:48.195Z,1.60
2022-10-17T10:19:30.830Z,1.42
2022-10-17T10:22:14.877Z,1.60
2022-10-17T10:24:57.188Z,1.73
2022-10-17T10:27:30.850Z,1.80
2022-10-17T10:30:05.610Z,1.58
2022-10-17T10:32:38.957Z,2.03
2022-10-17T10:35:22.216Z,1.38
2022-10-17T10:37:58.730Z,1.70
2022-10-17T10:40:35.087Z,2.75
2022-10-17T10:43:08.924Z,1.60
2022-10-17T10:45:48.720Z,1.75
2022-10-17T10:48:24.793Z,1.60
2022-10-17T10:50:59.714Z,1.50
2022-10-17T10:53:42.640Z,1.70
2022-10-17T10:56:21.673Z,1.70
2022-10-17T10:58:57.540Z,1.27
2022-10-17T11:01:43.394Z,1.58
2022-10-17T11:04:27.336Z,1.48
2022-10-17T11:07:05.085Z,1.70
2022-10-17T11:09:47.764Z,1.35
2022-10-17T11:12:25.412Z,1.60
2022-10-17T11:15:02.575Z,1.50
2022-10-17T11:17:41.610Z,1.55
2022-10-17T11:20:23.852Z,1.65
2022-10-17T11:23:02.979Z,1.33
2022-10-17T11:25:39.682Z,1.40
2022-10-17T11:28:15.794Z,1.35
2022-10-17T11:30:53.485Z,1.77
2022-10-17T11:33:32.870Z,1.15
2022-10-17T11:36:11.205Z,1.25
2022-10-17T11:38:49.311Z,1.48
2022-10-17T11:41:29.327Z,1.35
2022-10-17T11:44:10.095Z,1.60
2022-10-17T11:46:47.380Z,1.33
2022-10-17T11:52:08.187Z,1.48
2022-10-17T11:54:46.564Z,1.42
2022-10-17T11:57:37.463Z,1.30
2022-10-17T12:00:24.622Z,1.53
2022-10-17T12:03:08.934Z,1.60
2022-10-17T12:05:50.333Z,1.60
2022-10-17T12:08:31.327Z,1.40
2022-10-17T12:11:12.102Z,1.38
2022-10-17T12:13:51.892Z,1.50
2022-10-17T12:16:51.605Z,1.50
2022-10-17T12:19:35.232Z,1.60
2022-10-17T12:22:21.381Z,1.30
2022-10-17T12:24:57.687Z,1.50
2022-10-17T12:27:38.574Z,1.25
2022-10-17T12:30:32.006Z,1.50
2022-10-17T12:33:21.927Z,1.95
2022-10-17T12:36:47.566Z,1.60
2022-10-17T12:39:51.500Z,1.20
2022-10-17T12:42:46.013Z,1.55
2022-10-17T12:45:48.555Z,1.83
2022-10-17T12:49:01.411Z,1.42
2022-10-17T12:52:07.631Z,1.63
2022-10-17T12:54:48.027Z,1.60
2022-10-17T12:57:39.618Z,1.58
2022-10-17T13:00:23.738Z,1.88
2022-10-17T13:03:05.687Z,1.67
2022-10-17T13:05:42.232Z,1.60
2022-10-17T13:08:19.227Z,1.63
2022-10-17T13:10:54.751Z,1.60
2022-10-17T13:13:37.460Z,2.10
2022-10-17T13:16:10.900Z,1.65
2022-10-17T13:18:54.133Z,1.73
2022-10-17T13:21:27.790Z,1.42
2022-10-17T13:24:01.175Z,1.67
2022-10-17T13:26:34.227Z,1.50
2022-10-17T13:29:11.831Z,1.45
2022-10-17T13:31:45.932Z,1.70
2022-10-17T13:34:22.130Z,1.80
2022-10-17T13:36:58.126Z,1.58
2022-10-17T13:39:54.465Z,1.83
2022-10-17T13:42:30.888Z,1.40
2022-10-17T13:45:05.479Z,1.60
2022-10-17T13:47:40.411Z,1.73
2022-10-17T13:50:44.135Z,1.55
2022-10-17T13:53:21.546Z,1.80
2022-10-17T13:56:22.965Z,1.40
2022-10-17T13:58:53.868Z,1.58
2022-10-17T14:01:29.302Z,2.33
2022-10-17T14:04:09.226Z,2.22
2022-10-17T14:06:49.297Z,1.80
2022-10-17T14:09:26.638Z,1.70
2022-10-17T14:12:04.631Z,1.40
2022-10-17T14:14:58.393Z,1.80
2022-10-17T14:17:32.852Z,1.42
2022-10-17T14:20:40.790Z,1.60
2022-10-17T14:23:21.858Z,1.40
2022-10-17T14:26:23.089Z,1.55
2022-10-17T14:29:06.149Z,1.55
2022-10-17T14:31:40.027Z,1.35
2022-10-17T14:34:24.911Z,1.40
2022-10-17T14:36:57.953Z,1.60
2022-10-17T14:39:32.206Z,1.25
2022-10-17T14:42:05.149Z,1.30
2022-10-17T14:44:38.040Z,1.40
2022-10-17T14:47:42.287Z,1.50
2022-10-17T14:50:23.878Z,1.27
2022-10-17T14:53:06.061Z,1.40
2022-10-17T14:55:55.670Z,1.52
2022-10-17T14:58:29.963Z,1.35
2022-10-17T15:01:03.642Z,1.60
2022-10-17T15:03:36.599Z,1.30
2022-10-17T15:06:19.362Z,1.50
2022-10-17T15:08:52.224Z,1.30
2022-10-17T15:11:26.429Z,1.55
2022-10-17T15:13:59.317Z,1.42
2022-10-17T15:16:33.768Z,1.60
2022-10-17T15:19:06.613Z,1.30
2022-10-17T15:21:43.372Z,1.80
2022-10-17T15:24:19.824Z,1.58
2022-10-17T15:29:32.746Z,1.55
2022-10-17T15:32:05.704Z,1.60
2022-10-17T15:34:39.194Z,1.30
2022-10-17T15:37:20.948Z,1.33
2022-10-17T15:39:55.947Z,1.70
2022-10-17T15:42:31.437Z,1.55
2022-10-17T15:45:04.816Z,1.25
2022-10-17T15:47:38.213Z,1.50
2022-10-17T15:50:14.691Z,1.40
2022-10-17T15:52:47.776Z,1.70
2022-10-17T15:55:21.331Z,1.30
2022-10-17T15:57:56.096Z,1.55
2022-10-17T16:00:29.118Z,1.70
2022-10-17T16:03:01.974Z,1.63
2022-10-17T16:05:34.845Z,1.70
2022-10-17T16:08:07.676Z,1.52
2022-10-17T16:10:41.689Z,1.98
2022-10-17T16:13:18.989Z,2.05
2022-10-17T16:15:51.926Z,1.90
2022-10-17T16:18:24.724Z,2.20
2022-10-17T16:20:57.736Z,2.00
2022-10-17T16:23:30.561Z,2.00
2022-10-17T16:26:03.360Z,2.28
2022-10-17T16:28:39.523Z,1.90
2022-10-17T16:31:21.207Z,2.30
2022-10-17T16:33:55.969Z,2.40
2022-10-17T16:36:29.298Z,2.40
2022-10-17T16:39:02.437Z,1.95
2022-10-17T16:41:37.189Z,1.88
2022-10-17T16:44:14.573Z,1.90
2022-10-17T16:46:47.441Z,1.92
2022-10-17T16:49:20.207Z,1.58
2022-10-17T16:51:53.165Z,1.80
2022-10-17T16:54:25.932Z,2.10
2022-10-17T16:56:58.838Z,1.67
2022-10-17T16:59:32.979Z,2.13
2022-10-17T17:02:06.340Z,2.67
2022-10-17T17:04:39.133Z,2.22
2022-10-17T17:07:12.778Z,1.80
2022-10-17T17:09:45.568Z,2.15
2022-10-17T17:12:18.435Z,2.30
2022-10-17T17:14:52.624Z,2.22
2022-10-17T17:17:36.877Z,2.88
2022-10-17T17:20:10.538Z,2.45
2022-10-17T17:22:43.419Z,2.38
2022-10-17T17:25:16.333Z,2.33
2022-10-17T17:27:49.438Z,2.40
2022-10-17T17:30:23.703Z,2.03
2022-10-17T17:32:56.875Z,1.90
2022-10-17T17:35:30.652Z,1.77
2022-10-17T17:38:04.706Z,1.98
2022-10-17T17:40:37.629Z,2.28
2022-10-17T17:43:10.448Z,2.30
2022-10-17T17:45:44.765Z,2.38
2022-10-17T17:48:17.801Z,2.58
2022-10-17T17:50:50.631Z,2.05
2022-10-17T17:53:23.707Z,2.22
2022-10-17T17:56:03.767Z,2.83
2022-10-17T17:58:36.917Z,2.67
2022-10-17T18:01:15.070Z,3.25
2022-10-17T18:03:49.339Z,2.80
2022-10-17T18:06:23.877Z,3.60
2022-10-17T18:08:58.958Z,3.35
2022-10-17T18:11:32.135Z,2.72
2022-10-17T18:14:06.837Z,3.00
2022-10-17T18:16:41.283Z,2.90
2022-10-17T18:19:14.218Z,3.15
2022-10-17T18:21:47.073Z,2.92
2022-10-17T18:24:20.293Z,2.58
2022-10-17T18:26:56.093Z,2.30
2022-10-17T18:29:29.811Z,2.70
2022-10-17T18:32:03.995Z,2.17
2022-10-17T18:34:36.822Z,2.38
2022-10-17T18:37:09.860Z,2.40
2022-10-17T18:39:42.715Z,2.58
2022-10-17T18:42:15.733Z,2.67
2022-10-17T18:44:48.930Z,2.42
2022-10-17T18:47:23.071Z,2.53
2022-10-17T18:49:55.974Z,2.60
2022-10-17T18:52:28.981Z,2.90
2022-10-17T18:55:01.980Z,2.88
2022-10-17T18:57:34.803Z,2.58
2022-10-17T19:00:09.341Z,2.72
2022-10-17T19:02:43.562Z,2.58
2022-10-17T19:05:16.808Z,2.83
2022-10-17T19:07:50.290Z,3.50
2022-10-17T19:10:23.132Z,3.20
2022-10-17T19:12:55.993Z,2.55
2022-10-17T19:15:29.167Z,3.00
2022-10-17T19:18:04.048Z,3.28
2022-10-17T19:20:36.915Z,3.03
2022-10-17T19:23:09.753Z,2.97
2022-10-17T19:25:42.576Z,2.88
2022-10-17T19:28:15.419Z,2.42
2022-10-17T19:30:48.232Z,2.90
2022-10-17T19:33:22.468Z,2.97
2022-10-17T19:35:58.958Z,2.63
2022-10-17T19:38:32.185Z,2.85
2022-10-17T19:41:08.648Z,2.83
2022-10-17T19:43:42.943Z,2.67
2022-10-17T19:46:18.379Z,2.90
2022-10-17T19:48:53.416Z,3.05
2022-10-17T19:51:27.043Z,2.63
2022-10-17T19:54:02.028Z,2.88
2022-10-17T19:56:37.776Z,2.95
2022-10-17T19:59:13.048Z,2.58
2022-10-17T20:01:48.453Z,2.92
2022-10-17T20:04:28.245Z,2.97
2022-10-17T20:07:01.440Z,2.90
2022-10-17T20:09:34.374Z,2.90
2022-10-17T20:12:07.504Z,2.40
2022-10-17T20:14:41.257Z,2.80
2022-10-17T20:17:14.573Z,3.42
2022-10-17T20:19:48.851Z,2.95
2022-10-17T20:22:21.934Z,2.97
2022-10-17T20:24:54.753Z,3.05
2022-10-17T20:27:27.967Z,2.80
2022-10-17T20:30:01.942Z,2.75
2022-10-17T20:32:39.478Z,2.97
2022-10-17T20:35:13.998Z,2.67
2022-10-17T20:37:46.775Z,2.90
2022-10-17T20:40:35.881Z,2.53
2022-10-17T20:43:09.545Z,2.65
2022-10-17T20:45:51.549Z,2.45
2022-10-17T20:48:25.139Z,2.55
2022-10-17T20:50:59.337Z,2.78
2022-10-17T20:53:43.256Z,2.65
2022-10-17T20:56:20.273Z,2.53
2022-10-17T20:58:55.310Z,2.90
2022-10-17T21:01:29.455Z,2.70
2022-10-17T21:04:26.890Z,2.67
2022-10-17T21:06:58.449Z,2.75
2022-10-17T21:09:31.289Z,2.70
2022-10-17T21:12:05.372Z,2.95
2022-10-17T21:14:38.550Z,2.33
2022-10-17T21:17:11.355Z,2.38
2022-10-17T21:19:44.193Z,2.70
2022-10-17T21:22:18.798Z,2.38
2022-10-17T21:24:51.612Z,3.00
2022-10-17T21:27:24.469Z,2.63
2022-10-17T21:29:57.468Z,2.40
2022-10-17T21:32:40.393Z,2.80
2022-10-17T21:35:20.378Z,2.90
2022-10-17T21:37:54.579Z,2.72
2022-10-17T21:40:27.522Z,2.60
2022-10-17T21:43:00.351Z,2.50
2022-10-17T21:45:33.189Z,2.85
2022-10-17T21:48:13.744Z,2.92
2022-10-17T21:50:46.623Z,2.50
2022-10-17T21:53:22.116Z,2.58
2022-10-17T21:55:55.105Z,2.65
2022-10-17T21:58:28.856Z,2.50
2022-10-17T22:01:06.977Z,2.55
2022-10-17T22:03:44.212Z,2.72
2022-10-17T22:09:19.044Z,2.28
2022-10-17T22:11:54.293Z,2.20
2022-10-17T22:14:28.544Z,2.83
2022-10-17T22:17:01.670Z,2.42
2022-10-17T22:19:34.564Z,2.53
2022-10-17T22:22:07.433Z,2.60
2022-10-17T22:24:41.937Z,2.45
2022-10-17T22:27:14.923Z,2.38
2022-10-17T22:29:47.852Z,3.90
2022-10-17T22:32:22.567Z,2.67
2022-10-17T22:34:55.595Z,2.58
2022-10-17T22:37:28.701Z,2.45
2022-10-17T22:40:03.141Z,2.20
2022-10-17T22:42:36.719Z,2.42
2022-10-17T22:45:10.341Z,2.60
2022-10-17T22:47:43.551Z,2.88
2022-10-17T22:50:16.603Z,2.60
2022-10-17T22:52:49.525Z,2.35
2022-10-17T22:55:23.708Z,2.40
2022-10-17T22:57:56.602Z,2.35
2022-10-17T23:03:07.419Z,2.38
2022-10-17T23:05:40.298Z,2.42
2022-10-17T23:08:13.558Z,2.30
2022-10-17T23:10:48.829Z,2.40
2022-10-17T23:13:22.045Z,2.15
2022-10-17T23:15:57.043Z,2.33
2022-10-17T23:21:03.625Z,2.45
2022-10-17T23:23:37.542Z,2.35
2022-10-17T23:26:13.959Z,2.28
2022-10-17T23:28:46.947Z,2.50
2022-10-17T23:31:21.239Z,2.47
2022-10-17T23:33:54.313Z,2.10
2022-10-17T23:36:27.209Z,2.40
2022-10-17T23:39:00.235Z,2.28
2022-10-17T23:41:35.055Z,2.40
2022-10-17T23:44:07.890Z,2.58
2022-10-17T23:46:41.039Z,2.33
2022-10-17T23:49:14.014Z,2.45
2022-10-17T23:51:46.812Z,2.70
2022-10-17T23:54:19.896Z,2.63
2022-10-17T23:56:54.104Z,1.90
2022-10-17T23:59:26.999Z,2.72
